CZEM/ZEM METAR and TAF weather

Enter ICAO airport designator
Station Type Date Time Source
CZEM METAR 2018/12/12 21:00 UTC NOAA

CZEM 122100Z 13007KT 15SM FEW160 BKN260 M14/M18 A3016 RMK AC2CI3 LAST STFD OBS/NEXT 131400 UTC SLP216


Station Type Date Time Source
CZEM Decoded METAR 2018/12/12 21:00 UTC NOAA

Eastmain River Airport, Canada (CZEM) 52-14N 078-31W
Dec 12, 2018 - 04:00 PM EST / 2018.12.12 2100 UTC
Wind: from the SE (130 degrees) at 8 MPH (7 KT):0
Visibility: 15 mile(s):0
Sky conditions: mostly cloudy
Temperature: 6 F (-14 C)
Windchill: -7 F (-22 C):2
Dew Point: 0 F (-18 C)
Relative Humidity: 71%
Pressure (altimeter): 30.16 in. Hg (1021 hPa)
ob: CZEM 122100Z 13007KT 15SM FEW160 BKN260 M14/M18 A3016 RMK AC2CI3 LAST STFD OBS/NEXT 131400 UTC SLP216
cycle: 21

Station Type Date Time Source
CZEM TAF UTC NOAA

Error!


Example: see airport list